Time;durP1;ratioP1;P1;durP2;ratioP2;P2;SDS_P1;SDS_P2;PMS_P1;PMS_P2;Temp;Humidity;BMP_temperature;BMP_pressure;BME280_temperature;BME280_humidity;BME280_pressure;Samples;Min_cycle;Max_cycle;Signal;HPM_P1;HPM_P2
2021/06/11 00:00:47;;;;;;;;;;;19.70;83.20;;;;;;5088732;28;19979;-78
2021/06/11 00:03:12;;;;;;;;;;;19.70;83.70;;;;;;5073235;28;19908;-78
2021/06/11 00:05:38;;;;;;;;;;;19.60;83.00;;;;;;5073122;28;20316;-78
2021/06/11 00:08:04;;;;;;;;;;;19.60;83.00;;;;;;5072927;28;19962;-78
2021/06/11 00:10:30;;;;;;;;;;;19.50;83.00;;;;;;5088624;28;19908;-78
2021/06/11 00:12:55;;;;;;;;;;;19.40;83.30;;;;;;5073090;28;19955;-78
2021/06/11 00:15:21;;;;;;;;;;;19.40;83.40;;;;;;5071534;28;19932;-78
2021/06/11 00:17:47;;;;;;;;;;;19.40;83.70;;;;;;5071775;28;19923;-78
2021/06/11 00:20:12;;;;;;;;;;;19.40;84.80;;;;;;5088502;28;19944;-78
2021/06/11 00:22:38;;;;;;;;;;;19.30;85.10;;;;;;5072743;28;19908;-78
2021/06/11 00:25:07;;;;;;;;;;;19.40;85.20;;;;;;5088517;28;20384;-79
2021/06/11 00:27:33;;;;;;;;;;;19.30;85.10;;;;;;5088294;28;19999;-78
2021/06/11 00:29:58;;;;;;;;;;;19.20;85.30;;;;;;5072914;28;19995;-78
2021/06/11 00:32:23;;;;;;;;;;;19.20;85.50;;;;;;5072773;28;19912;-78
2021/06/11 00:34:49;;;;;;;;;;;19.10;85.60;;;;;;5072735;28;19916;-78
2021/06/11 00:37:14;;;;;;;;;;;19.10;85.60;;;;;;5072565;28;19920;-78
2021/06/11 00:39:40;;;;;;;;;;;19.00;85.70;;;;;;5088271;28;19909;-78
2021/06/11 00:42:05;;;;;;;;;;;18.90;86.20;;;;;;5072827;28;19915;-78
2021/06/11 00:44:31;;;;;;;;;;;18.70;87.40;;;;;;5088250;28;19932;-79
2021/06/11 00:46:56;;;;;;;;;;;18.70;88.00;;;;;;5088214;28;19909;-79
2021/06/11 00:49:22;;;;;;;;;;;18.80;87.90;;;;;;5088223;28;20356;-79
2021/06/11 00:51:48;;;;;;;;;;;18.80;87.60;;;;;;5072967;28;19912;-79
2021/06/11 00:54:13;;;;;;;;;;;18.90;87.70;;;;;;5071286;28;19913;-79
2021/06/11 00:56:39;;;;;;;;;;;18.80;87.70;;;;;;5072767;28;19919;-78
2021/06/11 00:59:05;;;;;;;;;;;18.80;87.90;;;;;;5088120;28;19915;-79
2021/06/11 01:01:30;;;;;;;;;;;18.80;88.20;;;;;;5072522;28;19908;-78
2021/06/11 01:03:55;;;;;;;;;;;18.80;88.70;;;;;;5071342;28;20009;-78
2021/06/11 01:06:21;;;;;;;;;;;18.70;88.90;;;;;;5071331;28;19995;-78
2021/06/11 01:08:47;;;;;;;;;;;18.70;89.00;;;;;;5072308;28;19909;-78
2021/06/11 01:11:13;;;;;;;;;;;18.60;89.40;;;;;;5071335;28;19908;-78
2021/06/11 01:13:39;;;;;;;;;;;18.60;89.40;;;;;;5088014;28;19957;-78
2021/06/11 01:16:05;;;;;;;;;;;18.60;89.50;;;;;;5069313;28;19924;-78
2021/06/11 01:18:30;;;;;;;;;;;18.50;89.60;;;;;;5071174;28;19975;-78
2021/06/11 01:20:56;;;;;;;;;;;18.40;90.00;;;;;;5072374;28;19909;-78
2021/06/11 01:23:27;;;;;;;;;;;18.40;90.00;;;;;;5071050;28;20261;-78
2021/06/11 01:26:12;;;;;;;;;;;18.40;89.80;;;;;;5071097;28;19908;-78
2021/06/11 01:28:38;;;;;;;;;;;18.40;89.80;;;;;;5087937;28;19965;-79
2021/06/11 01:31:05;;;;;;;;;;;18.50;89.80;;;;;;5091489;28;19990;-78
2021/06/11 01:33:31;;;;;;;;;;;18.50;89.70;;;;;;5091536;28;19908;-79
2021/06/11 01:36:00;;;;;;;;;;;18.50;89.60;;;;;;5074547;28;20454;-79
2021/06/11 01:38:27;;;;;;;;;;;18.50;89.80;;;;;;5075687;28;19974;-79
2021/06/11 01:40:54;;;;;;;;;;;18.40;90.00;;;;;;5075882;28;19908;-79
2021/06/11 01:43:22;;;;;;;;;;;18.20;90.50;;;;;;5091486;28;19999;-78
2021/06/11 01:45:48;;;;;;;;;;;18.10;91.00;;;;;;5075622;28;20283;-79
2021/06/11 01:48:15;;;;;;;;;;;18.00;91.30;;;;;;5075745;28;19918;-79
2021/06/11 01:50:40;;;;;;;;;;;17.90;91.70;;;;;;5091282;28;19944;-79
2021/06/11 01:53:07;;;;;;;;;;;17.80;92.30;;;;;;5075608;28;19948;-78
2021/06/11 01:55:33;;;;;;;;;;;17.80;93.10;;;;;;5075414;28;19909;-79
2021/06/11 01:57:59;;;;;;;;;;;17.80;93.30;;;;;;5091055;28;20364;-79
2021/06/11 02:00:25;;;;;;;;;;;17.80;93.60;;;;;;5075421;28;19909;-78
2021/06/11 02:02:51;;;;;;;;;;;17.90;93.40;;;;;;5075458;28;20322;-79
2021/06/11 02:05:17;;;;;;;;;;;18.00;93.30;;;;;;5075503;28;20283;-79
2021/06/11 02:07:43;;;;;;;;;;;18.00;93.00;;;;;;5090978;28;19908;-79
2021/06/11 02:10:10;;;;;;;;;;;18.10;93.20;;;;;;5072475;28;19931;-79
2021/06/11 02:12:36;;;;;;;;;;;18.10;92.90;;;;;;5073893;28;19917;-79
2021/06/11 02:15:03;;;;;;;;;;;18.10;92.80;;;;;;5073817;28;19913;-79
2021/06/11 02:17:29;;;;;;;;;;;18.10;93.00;;;;;;5064884;28;20001;-79
2021/06/11 02:19:55;;;;;;;;;;;18.10;92.60;;;;;;5075059;28;19908;-79
2021/06/11 02:22:20;;;;;;;;;;;18.10;92.60;;;;;;5074946;28;19909;-79
2021/06/11 02:24:46;;;;;;;;;;;18.10;92.50;;;;;;5074811;28;20360;-79
2021/06/11 02:27:11;;;;;;;;;;;18.10;92.40;;;;;;5090619;28;20303;-79
2021/06/11 02:29:37;;;;;;;;;;;18.10;92.40;;;;;;5074784;28;19993;-79
2021/06/11 02:32:03;;;;;;;;;;;18.10;92.40;;;;;;5090540;28;19909;-79
2021/06/11 02:34:29;;;;;;;;;;;18.10;92.50;;;;;;5090230;28;19950;-79
2021/06/11 02:36:54;;;;;;;;;;;18.00;92.40;;;;;;5090370;28;19925;-79
2021/06/11 02:39:20;;;;;;;;;;;18.00;92.40;;;;;;5074065;28;20379;-79
2021/06/11 02:41:49;;;;;;;;;;;18.00;92.50;;;;;;5074211;28;19944;-79
2021/06/11 02:44:15;;;;;;;;;;;18.00;92.40;;;;;;5073161;28;20319;-79
2021/06/11 02:46:45;;;;;;;;;;;17.90;92.50;;;;;;5090334;28;20401;-79
2021/06/11 02:49:13;;;;;;;;;;;17.90;92.50;;;;;;5070815;28;19931;-79
2021/06/11 02:51:42;;;;;;;;;;;17.90;92.60;;;;;;5073194;28;19909;-79
2021/06/11 02:54:13;;;;;;;;;;;17.80;92.60;;;;;;5089942;28;19909;-79
2021/06/11 02:56:43;;;;;;;;;;;17.80;92.50;;;;;;5074100;28;19913;-79
2021/06/11 02:59:18;;;;;;;;;;;17.80;92.50;;;;;;5089822;28;20428;-79
2021/06/11 03:01:47;;;;;;;;;;;17.80;92.50;;;;;;5074214;28;19977;-79
2021/06/11 03:04:13;;;;;;;;;;;17.80;92.60;;;;;;5062413;28;19916;-79
2021/06/11 03:06:42;;;;;;;;;;;17.80;92.70;;;;;;5072940;28;19909;-79
2021/06/11 03:09:10;;;;;;;;;;;17.70;92.70;;;;;;5073926;28;20287;-79
2021/06/11 03:11:39;;;;;;;;;;;17.70;92.70;;;;;;5073866;28;19908;-78
2021/06/11 03:14:06;;;;;;;;;;;17.70;92.80;;;;;;5089596;28;19993;-79
2021/06/11 03:16:31;;;;;;;;;;;17.60;92.80;;;;;;5086356;28;19967;-79
2021/06/11 03:19:01;;;;;;;;;;;17.60;92.70;;;;;;5089485;28;19913;-78
2021/06/11 03:21:34;;;;;;;;;;;17.50;92.70;;;;;;5089726;28;19912;-78
2021/06/11 03:24:03;;;;;;;;;;;17.50;92.80;;;;;;5089498;28;19995;-79
2021/06/11 03:26:30;;;;;;;;;;;17.50;92.80;;;;;;5089276;28;19908;-79
2021/06/11 03:28:58;;;;;;;;;;;17.50;92.70;;;;;;5089394;28;19958;-79
2021/06/11 03:31:26;;;;;;;;;;;17.40;92.70;;;;;;5072417;28;19917;-79
2021/06/11 03:33:53;;;;;;;;;;;17.40;92.80;;;;;;5069965;28;19952;-79
2021/06/11 03:36:20;;;;;;;;;;;17.30;92.80;;;;;;5072211;28;19923;-79
2021/06/11 03:38:49;;;;;;;;;;;17.20;92.90;;;;;;5089162;28;19963;-79
2021/06/11 03:41:15;;;;;;;;;;;17.20;92.90;;;;;;5088983;28;19913;-78
2021/06/11 03:43:41;;;;;;;;;;;17.20;92.90;;;;;;5089040;28;19916;-79
2021/06/11 03:46:06;;;;;;;;;;;17.20;93.00;;;;;;5089010;28;19909;-79
2021/06/11 03:48:33;;;;;;;;;;;17.10;93.00;;;;;;5073272;28;20360;-79
2021/06/11 03:51:00;;;;;;;;;;;17.10;93.10;;;;;;5073104;28;19948;-79
2021/06/11 03:53:26;;;;;;;;;;;17.10;93.20;;;;;;5073233;28;19916;-78
2021/06/11 03:55:58;;;;;;;;;;;17.20;93.40;;;;;;5088952;28;19908;-79
2021/06/11 03:58:24;;;;;;;;;;;17.10;93.40;;;;;;5088698;28;20300;-78
2021/06/11 04:00:50;;;;;;;;;;;17.10;93.50;;;;;;5086542;28;19909;-79
2021/06/11 04:03:16;;;;;;;;;;;17.10;93.60;;;;;;5071586;28;19909;-78
2021/06/11 04:05:42;;;;;;;;;;;17.00;93.90;;;;;;5052709;28;20062;-78
2021/06/11 04:08:10;;;;;;;;;;;17.10;94.00;;;;;;5062981;28;19908;-79
2021/06/11 04:10:39;;;;;;;;;;;17.20;94.00;;;;;;5063220;28;20391;-78
2021/06/11 04:13:18;;;;;;;;;;;17.20;93.80;;;;;;5067873;28;19913;-78
2021/06/11 04:15:47;;;;;;;;;;;17.30;93.80;;;;;;5067831;28;20290;-79
2021/06/11 04:18:15;;;;;;;;;;;17.30;93.70;;;;;;5053870;28;19919;-79
2021/06/11 04:20:41;;;;;;;;;;;17.40;93.70;;;;;;5057016;28;19975;-79
2021/06/11 04:23:07;;;;;;;;;;;17.40;93.70;;;;;;5055834;28;19938;-79
2021/06/11 04:25:35;;;;;;;;;;;17.40;93.70;;;;;;5067897;28;19913;-79
2021/06/11 04:28:02;;;;;;;;;;;17.40;93.70;;;;;;5069410;28;20280;-79
2021/06/11 04:30:27;;;;;;;;;;;17.50;93.90;;;;;;5075400;28;19909;-79
2021/06/11 04:32:53;;;;;;;;;;;17.50;93.90;;;;;;5056933;28;19909;-79
2021/06/11 04:35:23;;;;;;;;;;;17.50;93.90;;;;;;5061138;28;19916;-79
2021/06/11 04:37:48;;;;;;;;;;;17.50;94.00;;;;;;5064243;28;19917;-79
2021/06/11 04:40:14;;;;;;;;;;;17.50;94.10;;;;;;5068083;28;19908;-79
2021/06/11 04:42:39;;;;;;;;;;;17.40;94.40;;;;;;5061998;28;20007;-79
2021/06/11 04:45:05;;;;;;;;;;;17.40;95.20;;;;;;5066837;28;19913;-79
2021/06/11 04:47:31;;;;;;;;;;;17.30;96.10;;;;;;5066484;28;19909;-79
2021/06/11 04:49:56;;;;;;;;;;;17.30;97.10;;;;;;5067228;28;19908;-79
2021/06/11 04:52:22;;;;;;;;;;;17.30;98.00;;;;;;5064916;28;19909;-79
2021/06/11 04:54:47;;;;;;;;;;;17.30;98.40;;;;;;5077438;28;19924;-79
2021/06/11 04:57:13;;;;;;;;;;;17.30;98.80;;;;;;5057766;28;19920;-78
2021/06/11 04:59:38;;;;;;;;;;;17.30;98.90;;;;;;5067034;28;20375;-78
2021/06/11 05:02:04;;;;;;;;;;;17.30;99.30;;;;;;5067569;28;19947;-78
2021/06/11 05:04:29;;;;;;;;;;;17.40;99.90;;;;;;5069433;28;19908;-78
2021/06/11 05:06:55;;;;;;;;;;;17.40;99.80;;;;;;5059192;28;20027;-79
2021/06/11 05:09:21;;;;;;;;;;;17.40;99.80;;;;;;5073424;28;19927;-79
2021/06/11 05:11:47;;;;;;;;;;;17.50;99.90;;;;;;5076779;28;19908;-79
2021/06/11 05:14:12;;;;;;;;;;;17.40;99.90;;;;;;5076350;28;19909;-79
2021/06/11 05:16:37;;;;;;;;;;;17.40;99.90;;;;;;5076392;28;19927;-79
2021/06/11 05:19:03;;;;;;;;;;;17.50;99.90;;;;;;5076722;28;19956;-79
2021/06/11 05:21:29;;;;;;;;;;;17.40;99.90;;;;;;5074988;28;19916;-79
2021/06/11 05:23:54;;;;;;;;;;;17.40;99.90;;;;;;5075094;28;20267;-78
2021/06/11 05:26:20;;;;;;;;;;;17.40;99.90;;;;;;5074536;28;19916;-78
2021/06/11 05:28:45;;;;;;;;;;;17.40;99.90;;;;;;5074845;28;19909;-78
2021/06/11 05:31:10;;;;;;;;;;;17.40;99.90;;;;;;5074393;28;19955;-78
2021/06/11 05:33:36;;;;;;;;;;;17.40;99.90;;;;;;5075787;28;19916;-79
2021/06/11 05:36:01;;;;;;;;;;;17.50;99.90;;;;;;5075665;28;19913;-78
2021/06/11 05:38:27;;;;;;;;;;;17.50;99.90;;;;;;5075518;28;19921;-79
2021/06/11 05:40:54;;;;;;;;;;;17.40;99.90;;;;;;5075531;28;19919;-79
2021/06/11 05:43:19;;;;;;;;;;;17.50;99.90;;;;;;5074155;28;19908;-79
2021/06/11 05:45:45;;;;;;;;;;;17.50;99.90;;;;;;5073919;28;20383;-79
2021/06/11 05:48:11;;;;;;;;;;;17.50;99.90;;;;;;5074036;28;19956;-78
2021/06/11 05:50:36;;;;;;;;;;;17.50;99.90;;;;;;5073933;28;19909;-79
2021/06/11 05:53:01;;;;;;;;;;;17.50;99.90;;;;;;5075278;28;19915;-79
2021/06/11 05:55:27;;;;;;;;;;;17.60;99.90;;;;;;5075671;28;19908;-79
2021/06/11 05:57:53;;;;;;;;;;;17.50;99.90;;;;;;5075853;28;19913;-79
2021/06/11 06:00:18;;;;;;;;;;;17.60;99.90;;;;;;5075779;28;20403;-78
2021/06/11 06:02:44;;;;;;;;;;;17.50;99.90;;;;;;5075813;28;20016;-79
2021/06/11 06:05:10;;;;;;;;;;;17.50;99.90;;;;;;5074596;28;19908;-78
2021/06/11 06:07:36;;;;;;;;;;;17.50;99.90;;;;;;5074379;28;20368;-79
2021/06/11 06:10:02;;;;;;;;;;;17.60;99.90;;;;;;5074600;28;19909;-78
2021/06/11 06:12:28;;;;;;;;;;;17.60;99.90;;;;;;5074565;28;19909;-78
2021/06/11 06:14:53;;;;;;;;;;;17.60;99.90;;;;;;5074157;28;20403;-79
2021/06/11 06:17:18;;;;;;;;;;;17.50;99.90;;;;;;5074244;28;20342;-79
2021/06/11 06:19:45;;;;;;;;;;;17.50;99.90;;;;;;5074342;28;19928;-79
2021/06/11 06:22:11;;;;;;;;;;;17.50;99.90;;;;;;5074267;28;20345;-79
2021/06/11 06:24:36;;;;;;;;;;;17.50;99.90;;;;;;5074883;28;20003;-79
2021/06/11 06:27:02;;;;;;;;;;;17.50;99.90;;;;;;5075349;28;19955;-79
2021/06/11 06:29:28;;;;;;;;;;;17.60;99.90;;;;;;5090873;28;20010;-79
2021/06/11 06:31:53;;;;;;;;;;;17.70;99.90;;;;;;5075464;28;20395;-78
2021/06/11 06:34:19;;;;;;;;;;;17.80;99.90;;;;;;5090869;28;20376;-78
2021/06/11 06:36:44;;;;;;;;;;;17.80;99.90;;;;;;5075145;28;20389;-78
2021/06/11 06:39:10;;;;;;;;;;;17.90;99.90;;;;;;5075072;28;19909;-79
2021/06/11 06:41:36;;;;;;;;;;;18.00;99.90;;;;;;5074979;28;19920;-78
2021/06/11 06:44:02;;;;;;;;;;;18.10;99.90;;;;;;5089921;28;20433;-79
2021/06/11 06:46:27;;;;;;;;;;;18.10;99.90;;;;;;5090282;28;19935;-79
2021/06/11 06:48:53;;;;;;;;;;;18.10;99.90;;;;;;5073017;28;20360;-79
2021/06/11 06:51:20;;;;;;;;;;;18.00;99.90;;;;;;5087038;28;20204;-78
2021/06/11 06:53:46;;;;;;;;;;;18.00;99.90;;;;;;5078829;28;19931;-79
2021/06/11 06:56:12;;;;;;;;;;;18.10;99.90;;;;;;5080712;28;19931;-79
2021/06/11 06:58:37;;;;;;;;;;;18.20;99.90;;;;;;5079836;28;19909;-79
2021/06/11 07:01:03;;;;;;;;;;;18.20;99.90;;;;;;5062268;28;19908;-79
2021/06/11 07:03:29;;;;;;;;;;;18.20;99.90;;;;;;5080907;28;19909;-79
2021/06/11 07:05:54;;;;;;;;;;;18.30;99.90;;;;;;5058573;28;20384;-80
2021/06/11 07:08:20;;;;;;;;;;;18.30;99.90;;;;;;5063652;28;20373;-79
2021/06/11 07:10:45;;;;;;;;;;;18.30;99.90;;;;;;5063013;28;19970;-79
2021/06/11 07:13:14;;;;;;;;;;;18.40;99.90;;;;;;5064629;28;19916;-79
2021/06/11 07:15:39;;;;;;;;;;;18.50;99.90;;;;;;5065422;28;20268;-79
2021/06/11 07:18:05;;;;;;;;;;;18.50;99.90;;;;;;5064341;28;20276;-78
2021/06/11 07:20:30;;;;;;;;;;;18.50;99.90;;;;;;5063296;28;19916;-80
2021/06/11 07:22:56;;;;;;;;;;;18.50;99.90;;;;;;5079103;28;20400;-78
2021/06/11 07:25:21;;;;;;;;;;;18.50;99.90;;;;;;5061153;28;19915;-80
2021/06/11 07:27:47;;;;;;;;;;;18.50;99.90;;;;;;5078161;28;19915;-79
2021/06/11 07:30:13;;;;;;;;;;;18.40;99.90;;;;;;5067547;28;19916;-79
2021/06/11 07:32:40;;;;;;;;;;;18.50;99.90;;;;;;5080841;28;20357;-80
2021/06/11 07:35:06;;;;;;;;;;;18.50;99.90;;;;;;5075259;28;19913;-80
2021/06/11 07:37:31;;;;;;;;;;;18.60;99.90;;;;;;5053944;28;19913;-80
2021/06/11 07:39:57;;;;;;;;;;;18.60;99.90;;;;;;5069331;28;19919;-78
2021/06/11 07:42:23;;;;;;;;;;;18.60;99.90;;;;;;5069737;28;19908;-79
2021/06/11 07:44:49;;;;;;;;;;;18.70;99.90;;;;;;5069362;28;19913;-79
2021/06/11 07:47:14;;;;;;;;;;;18.80;99.90;;;;;;5081365;28;20297;-79
2021/06/11 07:49:41;;;;;;;;;;;18.90;99.90;;;;;;5066734;28;19916;-79
2021/06/11 07:52:07;;;;;;;;;;;19.00;99.90;;;;;;5060115;28;19908;-79
2021/06/11 07:54:33;;;;;;;;;;;19.00;99.90;;;;;;5080249;28;19916;-78
2021/06/11 07:56:58;;;;;;;;;;;19.10;99.90;;;;;;5080825;28;19935;-79
2021/06/11 07:59:24;;;;;;;;;;;19.10;99.90;;;;;;5089342;28;19958;-79
2021/06/11 08:01:50;;;;;;;;;;;19.20;99.90;;;;;;5069891;28;19909;-79
2021/06/11 08:04:15;;;;;;;;;;;19.30;99.90;;;;;;5077297;28;20375;-79
2021/06/11 08:06:40;;;;;;;;;;;19.30;99.90;;;;;;5063790;28;19915;-78
2021/06/11 08:09:06;;;;;;;;;;;19.30;99.90;;;;;;5063132;28;19916;-78
2021/06/11 08:11:32;;;;;;;;;;;19.30;99.90;;;;;;5061036;28;19916;-79
2021/06/11 08:13:57;;;;;;;;;;;19.40;99.90;;;;;;5079505;28;19909;-79
2021/06/11 08:16:24;;;;;;;;;;;19.50;99.90;;;;;;5077641;28;19920;-78
2021/06/11 08:18:50;;;;;;;;;;;19.60;99.90;;;;;;5063741;28;20004;-79
2021/06/11 08:21:16;;;;;;;;;;;19.70;99.90;;;;;;5078219;28;19909;-79
2021/06/11 08:23:41;;;;;;;;;;;19.70;99.90;;;;;;5062887;28;19909;-77
2021/06/11 08:26:07;;;;;;;;;;;19.80;99.90;;;;;;5079159;28;20395;-79
2021/06/11 08:28:32;;;;;;;;;;;19.90;99.90;;;;;;5065451;28;19912;-79
2021/06/11 08:30:58;;;;;;;;;;;19.90;99.90;;;;;;5077906;28;19909;-79
2021/06/11 08:33:23;;;;;;;;;;;20.00;99.40;;;;;;5062701;28;19909;-79
2021/06/11 08:35:49;;;;;;;;;;;20.00;99.30;;;;;;5063682;28;19909;-78
2021/06/11 08:38:14;;;;;;;;;;;20.10;99.20;;;;;;5063682;28;19917;-78
2021/06/11 08:40:40;;;;;;;;;;;20.20;99.40;;;;;;5067421;28;20003;-79
2021/06/11 08:43:05;;;;;;;;;;;20.40;99.20;;;;;;5069340;28;19909;-78
2021/06/11 08:45:31;;;;;;;;;;;20.50;98.80;;;;;;5082403;28;19909;-79
2021/06/11 08:47:58;;;;;;;;;;;20.60;98.60;;;;;;5066859;28;20364;-79
2021/06/11 08:50:27;;;;;;;;;;;20.70;98.60;;;;;;5067347;28;20394;-79
2021/06/11 08:52:53;;;;;;;;;;;20.80;98.30;;;;;;5070467;28;20380;-79
2021/06/11 08:55:18;;;;;;;;;;;20.90;98.10;;;;;;5075844;28;19915;-80
2021/06/11 08:57:44;;;;;;;;;;;21.00;97.70;;;;;;5085237;28;19917;-79
2021/06/11 09:00:10;;;;;;;;;;;21.10;97.30;;;;;;5082803;28;19909;-79
2021/06/11 09:02:56;;;;;;;;;;;21.20;96.90;;;;;;5065212;28;19909;-80
2021/06/11 09:05:21;;;;;;;;;;;21.30;96.30;;;;;;5066977;28;19962;-80
2021/06/11 09:07:47;;;;;;;;;;;21.30;95.40;;;;;;5067274;28;19909;-81
2021/06/11 09:10:12;;;;;;;;;;;21.40;95.00;;;;;;5066121;28;19909;-80
2021/06/11 09:12:39;;;;;;;;;;;21.50;95.60;;;;;;5064269;28;19916;-81
2021/06/11 09:15:09;;;;;;;;;;;21.60;95.20;;;;;;5082145;28;19912;-79
2021/06/11 09:17:34;;;;;;;;;;;21.70;94.70;;;;;;5068765;28;19975;-81
2021/06/11 09:20:07;;;;;;;;;;;21.80;94.20;;;;;;5066621;28;20319;-81
2021/06/11 09:22:37;;;;;;;;;;;21.90;93.70;;;;;;5083543;28;19931;-81
2021/06/11 09:25:22;;;;;;;;;;;22.00;93.90;;;;;;5068503;28;19909;-81
2021/06/11 09:27:49;;;;;;;;;;;22.10;93.50;;;;;;5065968;28;19909;-81
2021/06/11 09:30:14;;;;;;;;;;;22.20;93.20;;;;;;5066992;28;19916;-81
2021/06/11 09:32:40;;;;;;;;;;;22.30;92.40;;;;;;5061830;28;19915;-81
2021/06/11 09:35:07;;;;;;;;;;;22.40;92.40;;;;;;5082568;28;19915;-81
2021/06/11 09:37:34;;;;;;;;;;;22.40;92.30;;;;;;5065722;28;19962;-79
2021/06/11 09:40:03;;;;;;;;;;;22.50;92.30;;;;;;5082715;28;20361;-79
2021/06/11 09:42:33;;;;;;;;;;;22.60;92.00;;;;;;5081722;28;20464;-80
2021/06/11 09:45:06;;;;;;;;;;;22.70;91.60;;;;;;5063967;28;19908;-82
2021/06/11 09:47:36;;;;;;;;;;;22.80;91.20;;;;;;5081897;28;19963;-81
2021/06/11 09:50:22;;;;;;;;;;;22.90;91.50;;;;;;5063409;28;19909;-79
2021/06/11 09:52:51;;;;;;;;;;;23.10;91.30;;;;;;5065077;28;19952;-80
2021/06/11 09:55:26;;;;;;;;;;;23.30;91.00;;;;;;5064445;28;19956;-81
2021/06/11 09:58:13;;;;;;;;;;;23.50;90.60;;;;;;5079915;28;19913;-79
2021/06/11 10:00:59;;;;;;;;;;;23.60;90.50;;;;;;5067247;28;19978;-81
2021/06/11 10:03:29;;;;;;;;;;;23.80;90.70;;;;;;5073985;28;19919;-80
2021/06/11 10:05:56;;;;;;;;;;;24.00;91.10;;;;;;5091238;28;20358;-82
2021/06/11 10:08:22;;;;;;;;;;;24.50;91.20;;;;;;5091446;28;19908;-79
2021/06/11 10:10:48;;;;;;;;;;;25.70;88.60;;;;;;5075874;28;19908;-80
2021/06/11 10:13:15;;;;;;;;;;;27.70;81.90;;;;;;5091427;28;19999;-80
2021/06/11 10:15:42;;;;;;;;;;;29.30;76.00;;;;;;5075386;28;19913;-80
2021/06/11 10:18:08;;;;;;;;;;;30.80;69.70;;;;;;5070849;28;19913;-80
2021/06/11 10:20:33;;;;;;;;;;;31.90;64.60;;;;;;5054224;28;19909;-82
2021/06/11 10:23:00;;;;;;;;;;;32.30;60.60;;;;;;5055501;28;20335;-82
2021/06/11 10:25:25;;;;;;;;;;;32.80;59.10;;;;;;5073571;28;19913;-80
2021/06/11 10:27:51;;;;;;;;;;;33.30;55.90;;;;;;5091006;28;19915;-82
2021/06/11 10:30:17;;;;;;;;;;;33.70;54.90;;;;;;5074135;28;19909;-82
2021/06/11 10:32:45;;;;;;;;;;;33.50;52.00;;;;;;5074847;28;19967;-82
2021/06/11 10:35:12;;;;;;;;;;;32.70;52.30;;;;;;5074689;28;19912;-81
2021/06/11 10:37:39;;;;;;;;;;;33.00;53.10;;;;;;5090574;28;20014;-82
2021/06/11 10:40:14;;;;;;;;;;;33.70;51.30;;;;;;5090750;28;20300;-82
2021/06/11 10:42:40;;;;;;;;;;;34.10;49.50;;;;;;5075189;28;20372;-81
2021/06/11 10:45:06;;;;;;;;;;;34.70;48.90;;;;;;5073748;28;19916;-82
2021/06/11 10:47:33;;;;;;;;;;;35.30;47.90;;;;;;5073598;28;19909;-82
2021/06/11 10:50:02;;;;;;;;;;;35.40;47.00;;;;;;5090686;28;19909;-83
2021/06/11 10:52:34;;;;;;;;;;;34.60;47.40;;;;;;5075009;28;19917;-83
2021/06/11 10:55:14;;;;;;;;;;;34.30;47.20;;;;;;5074704;28;19995;-83
2021/06/11 10:57:43;;;;;;;;;;;34.00;48.60;;;;;;5086528;28;20006;-83
2021/06/11 11:00:28;;;;;;;;;;;34.60;47.50;;;;;;5074457;28;19909;-82
2021/06/11 11:02:54;;;;;;;;;;;34.70;46.10;;;;;;5088238;28;20390;-83
2021/06/11 11:05:32;;;;;;;;;;;34.80;47.30;;;;;;5090332;28;19908;-82
2021/06/11 11:07:58;;;;;;;;;;;35.40;46.20;;;;;;5074690;28;19916;-83
2021/06/11 11:10:34;;;;;;;;;;;36.00;46.00;;;;;;5071077;28;19912;-82
2021/06/11 11:13:07;;;;;;;;;;;35.50;46.20;;;;;;5060414;28;19961;-82
2021/06/11 11:15:33;;;;;;;;;;;34.30;47.20;;;;;;5065780;28;19968;-82
2021/06/11 11:17:59;;;;;;;;;;;34.60;47.20;;;;;;5065104;28;19913;-83
2021/06/11 11:20:29;;;;;;;;;;;33.80;47.60;;;;;;5063427;28;19919;-82
2021/06/11 11:22:56;;;;;;;;;;;34.50;48.30;;;;;;5078355;28;20337;-83
2021/06/11 11:25:22;;;;;;;;;;;35.30;46.40;;;;;;5062849;28;20361;-82
2021/06/11 11:27:48;;;;;;;;;;;35.60;45.10;;;;;;5081133;28;19916;-83
2021/06/11 11:30:13;;;;;;;;;;;35.10;44.30;;;;;;5078932;28;19958;-82
2021/06/11 11:32:39;;;;;;;;;;;33.50;45.90;;;;;;5069404;28;19912;-82
2021/06/11 11:35:05;;;;;;;;;;;33.70;47.80;;;;;;5072824;28;20015;-82
2021/06/11 11:37:30;;;;;;;;;;;33.80;45.90;;;;;;5071388;28;19966;-82
2021/06/11 11:39:56;;;;;;;;;;;33.90;47.50;;;;;;5064576;28;20324;-83
2021/06/11 11:42:21;;;;;;;;;;;34.00;45.40;;;;;;5062538;28;20335;-83
2021/06/11 11:44:46;;;;;;;;;;;34.40;46.70;;;;;;5080789;28;20261;-83
2021/06/11 11:47:12;;;;;;;;;;;34.90;45.70;;;;;;5079387;28;20350;-82
2021/06/11 11:49:37;;;;;;;;;;;35.30;44.40;;;;;;5073053;28;19940;-82
2021/06/11 11:52:03;;;;;;;;;;;35.50;44.40;;;;;;5088378;28;19908;-83
2021/06/11 11:54:44;;;;;;;;;;;35.80;45.30;;;;;;5050668;28;20855;-82
2021/06/11 11:57:10;;;;;;;;;;;35.40;42.50;;;;;;5085707;28;19924;-82
2021/06/11 11:59:35;;;;;;;;;;;35.40;43.50;;;;;;5088365;28;19908;-83
2021/06/11 12:02:01;;;;;;;;;;;35.60;42.00;;;;;;5070206;28;20364;-83
2021/06/11 12:04:26;;;;;;;;;;;35.30;42.90;;;;;;5071462;28;19913;-83
2021/06/11 12:06:51;;;;;;;;;;;35.30;43.50;;;;;;5068849;28;19908;-82
2021/06/11 12:09:17;;;;;;;;;;;35.10;43.20;;;;;;5073597;28;19912;-83
2021/06/11 12:11:42;;;;;;;;;;;35.50;44.80;;;;;;5072099;28;19916;-83
2021/06/11 12:14:09;;;;;;;;;;;36.10;43.40;;;;;;5073612;28;19915;-83
2021/06/11 12:16:34;;;;;;;;;;;35.90;42.50;;;;;;5073147;28;20007;-83
2021/06/11 12:19:00;;;;;;;;;;;35.60;42.30;;;;;;5073095;28;19999;-82
2021/06/11 12:21:25;;;;;;;;;;;35.90;42.90;;;;;;5088693;28;19910;-83
2021/06/11 12:23:51;;;;;;;;;;;36.00;43.00;;;;;;5073456;28;20437;-84
2021/06/11 12:26:17;;;;;;;;;;;35.60;43.60;;;;;;5072215;28;19909;-83
2021/06/11 12:28:42;;;;;;;;;;;35.10;43.30;;;;;;5073409;28;19961;-84
2021/06/11 12:31:08;;;;;;;;;;;35.00;43.60;;;;;;5087237;28;19916;-83
2021/06/11 12:33:34;;;;;;;;;;;34.80;44.30;;;;;;5070798;28;20395;-83
2021/06/11 12:36:00;;;;;;;;;;;34.90;44.10;;;;;;5071896;28;19955;-85
2021/06/11 12:38:26;;;;;;;;;;;35.00;44.10;;;;;;5070899;28;19981;-86
2021/06/11 12:40:55;;;;;;;;;;;35.30;42.80;;;;;;5071961;28;20357;-87
2021/06/11 12:43:27;;;;;;;;;;;35.30;42.50;;;;;;5070124;28;19916;-88
2021/06/11 12:45:53;;;;;;;;;;;34.80;43.80;;;;;;5071792;28;19913;-83
2021/06/11 12:48:18;;;;;;;;;;;34.40;44.00;;;;;;5071780;28;20379;-84
2021/06/11 12:50:44;;;;;;;;;;;33.60;45.60;;;;;;5073264;28;19913;-83
2021/06/11 12:53:09;;;;;;;;;;;34.00;46.30;;;;;;5073272;28;19916;-83
2021/06/11 12:55:40;;;;;;;;;;;34.30;44.90;;;;;;5062971;28;19913;-85
2021/06/11 12:58:05;;;;;;;;;;;34.50;44.50;;;;;;5085483;28;19926;-84
2021/06/11 13:00:31;;;;;;;;;;;34.80;45.30;;;;;;5077600;28;19909;-85
2021/06/11 13:02:56;;;;;;;;;;;35.30;44.00;;;;;;5069761;28;19915;-84
2021/06/11 13:05:22;;;;;;;;;;;35.20;44.60;;;;;;5087635;28;19916;-84
2021/06/11 13:07:48;;;;;;;;;;;34.80;45.10;;;;;;5071939;28;19908;-85
2021/06/11 13:10:13;;;;;;;;;;;35.10;43.90;;;;;;5051309;28;19920;-84
2021/06/11 13:12:39;;;;;;;;;;;34.90;44.10;;;;;;5052944;28;19917;-85
2021/06/11 13:15:05;;;;;;;;;;;34.90;43.30;;;;;;5079394;28;19919;-84
2021/06/11 13:17:30;;;;;;;;;;;34.20;42.90;;;;;;5070501;28;20022;-82
2021/06/11 13:19:56;;;;;;;;;;;34.10;45.40;;;;;;5070894;28;20375;-83
2021/06/11 13:22:21;;;;;;;;;;;34.50;43.70;;;;;;5071255;28;20322;-82
2021/06/11 13:24:47;;;;;;;;;;;34.40;44.10;;;;;;5072776;28;20368;-83
2021/06/11 13:27:12;;;;;;;;;;;33.90;44.60;;;;;;5057969;28;20333;-83
2021/06/11 13:29:38;;;;;;;;;;;33.80;44.60;;;;;;5060137;28;19916;-83
2021/06/11 13:32:03;;;;;;;;;;;33.90;44.10;;;;;;5065592;28;19909;-83
2021/06/11 13:34:29;;;;;;;;;;;34.10;45.00;;;;;;5091976;28;19931;-82
2021/06/11 13:36:54;;;;;;;;;;;34.40;44.30;;;;;;5074139;28;20015;-84
2021/06/11 13:39:20;;;;;;;;;;;34.60;44.00;;;;;;5074851;28;19955;-82
2021/06/11 13:41:45;;;;;;;;;;;34.40;43.60;;;;;;5091853;28;20360;-82
2021/06/11 13:44:11;;;;;;;;;;;34.10;44.30;;;;;;5076164;28;19913;-83
2021/06/11 13:46:36;;;;;;;;;;;33.10;43.30;;;;;;5074625;28;19909;-85
2021/06/11 13:49:02;;;;;;;;;;;32.80;44.60;;;;;;5074898;28;19909;-84
2021/06/11 13:51:27;;;;;;;;;;;32.70;45.50;;;;;;5076029;28;19915;-84
2021/06/11 13:53:53;;;;;;;;;;;32.20;46.20;;;;;;5074797;28;19908;-84
2021/06/11 13:56:19;;;;;;;;;;;31.60;47.30;;;;;;5075931;28;19909;-85
2021/06/11 13:58:44;;;;;;;;;;;31.40;48.50;;;;;;5074506;28;20160;-85
2021/06/11 14:01:10;;;;;;;;;;;31.20;48.50;;;;;;5075878;28;20007;-85
2021/06/11 14:03:35;;;;;;;;;;;30.90;48.80;;;;;;5074538;28;19913;-84
2021/06/11 14:06:01;;;;;;;;;;;30.70;49.20;;;;;;5074536;28;19912;-85
2021/06/11 14:08:26;;;;;;;;;;;30.70;49.60;;;;;;5074335;28;19908;-85
2021/06/11 14:10:53;;;;;;;;;;;30.40;49.50;;;;;;5063025;28;20288;-87
2021/06/11 14:13:19;;;;;;;;;;;30.10;50.90;;;;;;5070826;28;19909;-85